Time;durP1;ratioP1;P1;durP2;ratioP2;P2;SDS_P1;SDS_P2;PMS_P1;PMS_P2;Temp;Humidity;BMP_temperature;BMP_pressure;BME280_temperature;BME280_humidity;BME280_pressure;Samples;Min_cycle;Max_cycle;Signal;HPM_P1;HPM_P2
2021/05/09 00:01:22;;;;;;;6.03;3.25;;;;;;;8.30;90.13;100877.66;4976483;28;20045;-87
2021/05/09 00:03:48;;;;;;;4.50;3.17;;;;;;;8.27;89.56;100867.47;4978743;28;20084;-85
2021/05/09 00:06:14;;;;;;;4.72;3.17;;;;;;;8.32;89.98;100876.56;5011018;28;20054;-88
2021/05/09 00:08:40;;;;;;;4.55;3.53;;;;;;;8.28;90.07;100863.91;5010364;28;20128;-85
2021/05/09 00:11:06;;;;;;;3.92;3.50;;;;;;;8.32;90.79;100871.34;5010566;28;20156;-85
2021/05/09 00:13:32;;;;;;;7.80;3.58;;;;;;;8.35;90.04;100868.50;5009575;28;20041;-86
2021/05/09 00:15:58;;;;;;;7.05;3.70;;;;;;;8.34;90.74;100871.22;5009998;28;20053;-83
2021/05/09 00:18:25;;;;;;;5.75;3.65;;;;;;;8.31;90.36;100869.72;5010016;28;20058;-85
2021/05/09 00:20:50;;;;;;;4.15;3.55;;;;;;;8.34;90.23;100866.84;4992275;28;20045;-87
2021/05/09 00:23:16;;;;;;;6.82;3.72;;;;;;;8.33;90.38;100851.28;4977715;28;20500;-87
2021/05/09 00:25:42;;;;;;;5.30;3.38;;;;;;;8.37;90.37;100860.53;4991926;28;20467;-83
2021/05/09 00:28:11;;;;;;;5.60;3.85;;;;;;;8.37;91.19;100858.72;5008152;28;20077;-88
2021/05/09 00:30:36;;;;;;;4.80;3.60;;;;;;;8.37;91.07;100860.53;5025320;28;20120;-84
2021/05/09 00:33:02;;;;;;;7.47;4.00;;;;;;;8.35;90.49;100849.38;5010574;28;20081;-87
2021/05/09 00:35:27;;;;;;;5.65;3.45;;;;;;;8.31;90.58;100847.97;4978239;28;20439;-84
2021/05/09 00:37:53;;;;;;;5.75;3.42;;;;;;;8.40;90.46;100855.03;5009962;28;20050;-85
2021/05/09 00:40:19;;;;;;;5.00;3.28;;;;;;;8.33;90.31;100838.22;4993360;28;20038;-86
2021/05/09 00:42:44;;;;;;;4.30;3.47;;;;;;;8.36;90.09;100835.34;4993606;28;20049;-86
2021/05/09 00:45:10;;;;;;;4.60;3.55;;;;;;;8.45;90.59;100839.00;4994014;28;20046;-85
2021/05/09 00:47:35;;;;;;;4.78;3.42;;;;;;;8.45;89.48;100837.19;5011406;28;20524;-84
2021/05/09 00:50:03;;;;;;;4.75;3.55;;;;;;;8.49;90.22;100835.16;5011320;28;20512;-85
2021/05/09 00:52:32;;;;;;;6.25;3.50;;;;;;;8.48;89.93;100831.72;4979256;28;20139;-86
2021/05/09 00:55:01;;;;;;;6.80;3.97;;;;;;;8.46;89.98;100827.59;5013134;28;20042;-86
2021/05/09 00:57:31;;;;;;;4.10;3.60;;;;;;;8.46;90.61;100819.75;4979782;28;20046;-84
2021/05/09 00:59:59;;;;;;;5.07;3.22;;;;;;;8.49;89.66;100819.47;4992735;28;20489;-85
2021/05/09 01:02:27;;;;;;;5.18;3.40;;;;;;;8.44;90.50;100814.66;5010861;28;20042;-86
2021/05/09 01:04:54;;;;;;;5.35;3.80;;;;;;;8.43;90.87;100822.63;5011222;28;20068;-84
2021/05/09 01:07:20;;;;;;;5.18;3.22;;;;;;;8.49;89.65;100815.06;4993247;28;20153;-87
2021/05/09 01:09:47;;;;;;;6.03;3.47;;;;;;;8.44;90.78;100816.41;5025454;28;20050;-84
2021/05/09 01:12:14;;;;;;;5.55;3.58;;;;;;;8.51;89.83;100813.16;4977439;28;20046;-83
2021/05/09 01:14:41;;;;;;;4.00;3.15;;;;;;;8.51;89.89;100820.16;5009349;28;20050;-85
2021/05/09 01:17:09;;;;;;;7.10;2.88;;;;;;;8.50;89.15;100823.75;5007206;28;20412;-85
2021/05/09 01:19:35;;;;;;;6.13;3.20;;;;;;;8.51;89.69;100814.94;4992599;28;20567;-87
2021/05/09 01:22:03;;;;;;;3.72;2.88;;;;;;;8.56;88.29;100824.03;5008789;28;20069;-85
2021/05/09 01:24:28;;;;;;;5.30;2.90;;;;;;;8.56;89.31;100818.00;4993877;28;20062;-87
2021/05/09 01:26:54;;;;;;;4.22;2.97;;;;;;;8.62;88.51;100824.47;4992081;28;20073;-84
2021/05/09 01:29:20;;;;;;;3.58;2.67;;;;;;;8.64;89.42;100812.09;4987636;28;20057;-86
2021/05/09 01:31:46;;;;;;;4.13;3.15;;;;;;;8.61;90.68;100828.88;5009827;28;20141;-86
2021/05/09 01:34:12;;;;;;;3.67;2.55;;;;;;;8.57;91.64;100820.47;4993661;28;20148;-84
2021/05/09 01:36:38;;;;;;;4.13;3.10;;;;;;;8.57;90.03;100817.88;5012450;28;20128;-85
2021/05/09 01:39:05;;;;;;;3.25;2.70;;;;;;;8.64;89.33;100822.56;5014122;28;20129;-84
2021/05/09 01:41:32;;;;;;;4.40;3.35;;;;;;;8.70;89.92;100827.25;5014564;28;20101;-85
2021/05/09 01:43:58;;;;;;;5.55;3.03;;;;;;;8.70;89.78;100822.03;5013882;28;20510;-85
2021/05/09 01:46:23;;;;;;;3.17;2.65;;;;;;;8.72;89.46;100818.34;4992557;28;20043;-83
2021/05/09 01:48:49;;;;;;;3.35;2.63;;;;;;;8.73;89.15;100812.13;4995698;28;20030;-87
2021/05/09 01:51:15;;;;;;;6.15;3.05;;;;;;;8.69;88.52;100794.25;5014024;28;20100;-86
2021/05/09 01:53:41;;;;;;;4.47;3.25;;;;;;;8.77;89.94;100808.28;5011688;28;20069;-86
2021/05/09 01:56:06;;;;;;;3.08;2.65;;;;;;;8.80;89.36;100814.22;5013943;28;20125;-85
2021/05/09 01:58:34;;;;;;;4.88;2.90;;;;;;;8.85;87.78;100801.56;4998030;28;20044;-83
2021/05/09 02:01:10;;;;;;;5.47;3.10;;;;;;;8.85;88.93;100809.41;4998055;28;20045;-84
2021/05/09 02:03:44;;;;;;;3.97;2.60;;;;;;;8.82;90.19;100799.22;4995807;28;20042;-85
2021/05/09 02:06:09;;;;;;;4.93;2.63;;;;;;;8.81;88.55;100802.78;5012084;28;20451;-84
2021/05/09 02:08:35;;;;;;;3.78;2.70;;;;;;;8.85;88.39;100799.78;4999393;28;20042;-85
2021/05/09 02:11:11;;;;;;;7.05;3.00;;;;;;;8.92;87.76;100803.50;5010002;28;20049;-85
2021/05/09 02:13:38;;;;;;;2.95;2.58;;;;;;;8.86;88.71;100790.97;4996776;28;20034;-85
2021/05/09 02:16:13;;;;;;;5.57;2.50;;;;;;;8.92;87.20;100802.69;5011829;28;20045;-86
2021/05/09 02:18:39;;;;;;;2.63;2.30;;;;;;;8.89;87.96;100795.94;4997235;28;20033;-86
2021/05/09 02:21:04;;;;;;;5.15;2.30;;;;;;;8.92;87.95;100794.84;5021126;28;20070;-85
2021/05/09 02:23:30;;;;;;;3.88;2.55;;;;;;;8.84;88.86;100794.69;4995861;28;20044;-85
2021/05/09 02:25:56;;;;;;;5.38;2.83;;;;;;;8.77;89.80;100797.81;5014001;28;20042;-85
2021/05/09 02:28:22;;;;;;;4.88;2.80;;;;;;;8.75;90.17;100794.50;5010460;28;20883;-86
2021/05/09 02:30:49;;;;;;;6.15;2.97;;;;;;;8.67;91.55;100791.75;4994964;28;20042;-86
2021/05/09 02:33:16;;;;;;;8.18;2.88;;;;;;;8.71;91.79;100793.13;5011616;28;20049;-85
2021/05/09 02:35:44;;;;;;;4.90;2.83;;;;;;;8.67;92.46;100791.75;5013113;28;20104;-85
2021/05/09 02:38:11;;;;;;;4.78;2.83;;;;;;;8.61;92.39;100789.66;4994263;28;20034;-85
2021/05/09 02:40:36;;;;;;;5.05;3.13;;;;;;;8.62;91.83;100795.72;4994850;28;20045;-85
2021/05/09 02:43:03;;;;;;;4.32;2.95;;;;;;;8.58;91.85;100782.91;4991491;28;20401;-85
2021/05/09 02:45:28;;;;;;;4.40;2.83;;;;;;;8.56;91.57;100782.22;4970981;28;20042;-84
2021/05/09 02:47:54;;;;;;;3.00;2.70;;;;;;;8.49;92.12;100786.31;4994687;28;20050;-86
2021/05/09 02:50:21;;;;;;;6.53;3.00;;;;;;;8.41;92.67;100783.50;4978738;28;20215;-87
2021/05/09 02:52:47;;;;;;;6.70;2.65;;;;;;;8.27;93.28;100789.91;4972907;28;20416;-86
2021/05/09 02:55:14;;;;;;;7.03;2.95;;;;;;;8.24;93.33;100789.34;4995086;28;20415;-85
2021/05/09 02:57:41;;;;;;;10.95;3.10;;;;;;;8.18;93.24;100783.69;4995580;28;20819;-86
2021/05/09 03:00:08;;;;;;;5.15;2.78;;;;;;;8.11;93.31;100790.38;4994476;28;20102;-83
2021/05/09 03:02:36;;;;;;;6.30;2.95;;;;;;;8.11;93.31;100790.38;4979731;28;20441;-85
2021/05/09 03:05:03;;;;;;;3.60;2.40;;;;;;;8.11;92.74;100789.53;4973007;28;20057;-85
2021/05/09 03:07:28;;;;;;;8.57;2.70;;;;;;;8.10;92.96;100791.34;4979996;28;20080;-85
2021/05/09 03:09:54;;;;;;;8.30;2.75;;;;;;;8.13;93.50;100791.06;4994000;28;20046;-85
2021/05/09 03:12:20;;;;;;;5.88;3.58;;;;;;;8.11;93.90;100790.38;4994776;28;20042;-85
2021/05/09 03:14:46;;;;;;;4.10;2.88;;;;;;;8.07;93.16;100786.38;5028682;28;20042;-85
2021/05/09 03:17:12;;;;;;;6.63;3.08;;;;;;;8.12;92.93;100789.41;4994999;28;20184;-85
2021/05/09 03:19:37;;;;;;;6.35;3.20;;;;;;;8.22;92.90;100788.66;4995075;28;20536;-86
2021/05/09 03:22:03;;;;;;;3.85;3.10;;;;;;;8.23;93.12;100792.91;5026967;28;20057;-85
2021/05/09 03:24:28;;;;;;;3.63;2.85;;;;;;;8.22;93.36;100791.25;5011760;28;20169;-85
2021/05/09 03:26:59;;;;;;;4.15;2.63;;;;;;;8.19;93.51;100789.72;5010794;28;20463;-85
2021/05/09 03:29:25;;;;;;;3.40;2.30;;;;;;;8.25;92.93;100802.28;4988755;28;20034;-84
2021/05/09 03:31:51;;;;;;;3.53;2.85;;;;;;;8.32;93.60;100792.13;5009938;28;20202;-86
2021/05/09 03:34:16;;;;;;;4.90;2.92;;;;;;;8.41;92.85;100790.53;4996163;28;20065;-84
2021/05/09 03:36:42;;;;;;;5.38;2.88;;;;;;;8.49;92.76;100790.72;5009897;28;20092;-85
2021/05/09 03:39:07;;;;;;;3.55;2.53;;;;;;;8.53;91.92;100787.72;4994624;28;20042;-85
2021/05/09 03:41:33;;;;;;;3.75;2.45;;;;;;;8.67;91.28;100791.75;5011740;28;20034;-85
2021/05/09 03:43:58;;;;;;;4.13;2.50;;;;;;;8.72;90.81;100794.81;5010559;28;20511;-85
2021/05/09 03:46:24;;;;;;;2.95;2.22;;;;;;;8.77;90.84;100792.59;4994713;28;20072;-84
2021/05/09 03:48:49;;;;;;;2.85;2.25;;;;;;;8.80;90.55;100796.75;4977905;28;20038;-86
2021/05/09 03:51:15;;;;;;;2.60;2.20;;;;;;;8.84;90.34;100787.66;4993638;28;20080;-82
2021/05/09 03:53:40;;;;;;;3.85;2.60;;;;;;;8.85;89.49;100791.09;5002206;28;20508;-82
2021/05/09 03:56:06;;;;;;;3.25;2.17;;;;;;;8.86;90.31;100790.16;4996957;28;20433;-83
2021/05/09 03:58:32;;;;;;;2.75;2.10;;;;;;;8.80;90.70;100780.19;4979274;28;20052;-84
2021/05/09 04:00:57;;;;;;;3.83;2.88;;;;;;;8.94;89.48;100788.50;4977899;28;20121;-85
2021/05/09 04:03:31;;;;;;;3.00;2.47;;;;;;;8.93;89.16;100791.28;4993431;28;20045;-85
2021/05/09 04:05:57;;;;;;;4.43;2.40;;;;;;;8.99;89.21;100792.53;4993836;28;20069;-85
2021/05/09 04:08:24;;;;;;;3.70;2.20;;;;;;;9.07;87.42;100796.09;4994993;28;20072;-86
2021/05/09 04:10:52;;;;;;;6.35;2.25;;;;;;;9.11;88.97;100796.66;4977342;28;20073;-84
2021/05/09 04:13:18;;;;;;;5.32;2.40;;;;;;;9.13;89.36;100792.13;5010695;28;20037;-84
2021/05/09 04:15:44;;;;;;;3.72;2.17;;;;;;;9.15;89.86;100788.41;4993421;28;20042;-85
2021/05/09 04:18:10;;;;;;;4.18;2.45;;;;;;;9.18;88.96;100791.72;4987957;28;20041;-83
2021/05/09 04:20:36;;;;;;;3.95;2.28;;;;;;;9.24;87.75;100786.75;4991781;28;20065;-84
2021/05/09 04:23:12;;;;;;;3.50;2.20;;;;;;;9.30;87.50;100793.25;5010119;28;20049;-83
2021/05/09 04:25:39;;;;;;;3.85;2.00;;;;;;;9.29;87.85;100784.56;4993329;28;20042;-84
2021/05/09 04:28:06;;;;;;;4.25;2.28;;;;;;;9.41;87.25;100794.91;4993799;28;20412;-83
2021/05/09 04:30:32;;;;;;;2.42;2.20;;;;;;;9.44;87.31;100789.41;4976894;28;20099;-86
2021/05/09 04:33:03;;;;;;;4.72;2.35;;;;;;;9.47;86.25;100789.94;4993654;28;20038;-85
2021/05/09 04:35:29;;;;;;;2.47;2.05;;;;;;;9.57;85.82;100791.72;5020712;28;20076;-86
2021/05/09 04:37:55;;;;;;;2.30;2.10;;;;;;;9.59;85.28;100781.94;4977323;28;20049;-86
2021/05/09 04:40:21;;;;;;;4.05;2.22;;;;;;;9.62;85.50;100798.19;4992879;28;20034;-83
2021/05/09 04:42:46;;;;;;;4.50;2.30;;;;;;;9.63;85.03;100797.25;4993296;28;20088;-83
2021/05/09 04:45:12;;;;;;;2.58;1.83;;;;;;;9.67;84.09;100784.69;5010325;28;20088;-83
2021/05/09 04:47:38;;;;;;;2.20;2.00;;;;;;;9.74;83.41;100791.03;4973736;28;20421;-85
2021/05/09 04:50:05;;;;;;;3.97;1.98;;;;;;;9.72;83.44;100785.94;5006978;28;20038;-84
2021/05/09 04:52:30;;;;;;;3.78;2.35;;;;;;;9.79;83.04;100786.19;4993759;28;20072;-85
2021/05/09 04:54:56;;;;;;;1.90;1.80;;;;;;;9.81;83.05;100775.56;4993324;28;20466;-84
2021/05/09 04:57:22;;;;;;;3.20;1.88;;;;;;;9.82;82.82;100774.63;5009933;28;20043;-84
2021/05/09 04:59:47;;;;;;;2.75;1.83;;;;;;;9.85;82.26;100780.41;4991956;28;20046;-85
2021/05/09 05:02:13;;;;;;;3.50;2.15;;;;;;;9.90;82.49;100779.97;4984237;28;20050;-84
2021/05/09 05:04:38;;;;;;;6.75;2.25;;;;;;;9.98;81.77;100776.63;4992820;28;20523;-85
2021/05/09 05:07:04;;;;;;;4.10;1.88;;;;;;;10.04;81.37;100774.28;4995796;28;20061;-85
2021/05/09 05:09:29;;;;;;;2.95;2.35;;;;;;;10.07;80.60;100768.75;4992944;28;20077;-86
2021/05/09 05:11:56;;;;;;;6.82;2.25;;;;;;;10.23;80.45;100768.16;4993493;28;20056;-82
2021/05/09 05:14:22;;;;;;;5.05;2.38;;;;;;;10.40;80.88;100771.84;5009524;28;20080;-83
2021/05/09 05:16:47;;;;;;;3.65;1.85;;;;;;;10.57;80.50;100772.03;5010939;28;20512;-84
2021/05/09 05:19:13;;;;;;;3.65;1.80;;;;;;;10.71;78.52;100775.00;4992740;28;20416;-86
2021/05/09 05:21:38;;;;;;;2.17;1.90;;;;;;;10.83;78.43;100777.41;5010672;28;20045;-84
2021/05/09 05:24:04;;;;;;;2.10;1.55;;;;;;;10.94;77.75;100771.97;4994298;28;20141;-85
2021/05/09 05:26:29;;;;;;;2.75;1.70;;;;;;;11.01;77.72;100777.47;4993328;28;20034;-85
2021/05/09 05:28:55;;;;;;;3.40;1.88;;;;;;;11.13;77.27;100780.69;4997182;28;20053;-85
2021/05/09 05:31:20;;;;;;;4.72;1.85;;;;;;;11.25;75.52;100780.31;5008538;28;20053;-84
2021/05/09 05:33:46;;;;;;;2.88;1.60;;;;;;;11.36;74.79;100773.19;4993125;28;20133;-84
2021/05/09 05:36:11;;;;;;;2.70;1.80;;;;;;;11.49;74.46;100776.28;5009549;28;20108;-87
2021/05/09 05:38:37;;;;;;;3.75;1.60;;;;;;;11.57;74.80;100765.00;4977155;28;20030;-85
2021/05/09 05:41:03;;;;;;;2.08;1.38;;;;;;;11.74;73.57;100777.28;5005741;28;20096;-85
2021/05/09 05:43:30;;;;;;;1.60;1.40;;;;;;;11.87;74.33;100776.88;5009338;28;20400;-86
2021/05/09 05:45:57;;;;;;;3.67;1.40;;;;;;;11.99;73.37;100782.72;5008080;28;20045;-84
2021/05/09 05:48:24;;;;;;;1.80;1.40;;;;;;;12.10;74.49;100786.91;5008684;28;20038;-84
2021/05/09 05:50:50;;;;;;;4.00;1.50;;;;;;;12.21;73.31;100778.75;4992516;28;20061;-85
2021/05/09 05:53:18;;;;;;;2.10;1.42;;;;;;;12.40;70.88;100778.53;4992822;28;20045;-85
2021/05/09 05:55:44;;;;;;;1.60;1.50;;;;;;;12.50;70.79;100777.56;5026241;28;20050;-84
2021/05/09 05:58:10;;;;;;;1.70;1.60;;;;;;;12.59;71.50;100774.00;5009039;28;20057;-85
2021/05/09 06:00:35;;;;;;;3.20;1.35;;;;;;;12.69;71.80;100772.03;5017445;28;20036;-85
2021/05/09 06:03:01;;;;;;;3.05;1.40;;;;;;;12.87;71.27;100777.22;4992197;28;20066;-85
2021/05/09 06:05:26;;;;;;;2.25;1.35;;;;;;;12.98;71.29;100771.66;5009306;28;20741;-85
2021/05/09 06:07:52;;;;;;;3.83;1.55;;;;;;;13.11;70.33;100773.81;5008140;28;20054;-85
2021/05/09 06:10:17;;;;;;;3.28;1.55;;;;;;;13.22;70.84;100765.59;4977667;28;20034;-84
2021/05/09 06:12:43;;;;;;;2.03;1.70;;;;;;;13.28;69.52;100765.91;5010358;28;20060;-85
2021/05/09 06:15:09;;;;;;;4.15;1.52;;;;;;;13.47;71.36;100773.53;4993152;28;20042;-84
2021/05/09 06:17:34;;;;;;;1.75;1.10;;;;;;;13.58;69.06;100764.47;5008015;28;20038;-86
2021/05/09 06:20:00;;;;;;;2.17;1.38;;;;;;;13.69;68.02;100766.75;4999650;28;20444;-85
2021/05/09 06:22:25;;;;;;;3.80;1.58;;;;;;;13.87;69.08;100765.78;5009340;28;20069;-85
2021/05/09 06:24:52;;;;;;;4.28;1.42;;;;;;;13.96;69.63;100762.94;5011758;28;20046;-85
2021/05/09 06:27:17;;;;;;;3.92;1.40;;;;;;;14.07;67.52;100767.06;4995525;28;20042;-85
2021/05/09 06:29:43;;;;;;;2.10;1.40;;;;;;;14.22;66.89;100767.16;5011775;28;20054;-85
2021/05/09 06:32:08;;;;;;;2.33;1.33;;;;;;;14.29;67.97;100764.66;5013323;28;20042;-86
2021/05/09 06:34:34;;;;;;;4.57;1.35;;;;;;;14.32;66.51;100766.97;5013413;28;20140;-86
2021/05/09 06:36:59;;;;;;;2.10;1.20;;;;;;;14.48;65.85;100763.44;4997866;28;20060;-87
2021/05/09 06:39:27;;;;;;;5.07;2.13;;;;;;;14.60;66.37;100777.94;4994652;28;20085;-84
2021/05/09 06:41:55;;;;;;;3.35;1.20;;;;;;;14.75;67.64;100775.41;5006382;28;20129;-85
2021/05/09 06:44:21;;;;;;;3.10;1.40;;;;;;;14.88;65.59;100772.16;5012191;28;20065;-86
2021/05/09 06:46:46;;;;;;;3.63;1.20;;;;;;;14.98;64.53;100778.88;4995928;28;20037;-85
2021/05/09 06:49:14;;;;;;;2.58;1.33;;;;;;;15.08;64.96;100777.84;4980455;28;20524;-84
2021/05/09 06:51:39;;;;;;;2.83;1.33;;;;;;;15.16;64.57;100780.41;4995694;28;20056;-83
2021/05/09 06:54:05;;;;;;;3.88;1.30;;;;;;;15.33;64.94;100778.47;4996793;28;20030;-84
2021/05/09 06:56:32;;;;;;;2.83;1.25;;;;;;;15.40;64.13;100778.59;5013599;28;20050;-84
2021/05/09 06:58:57;;;;;;;2.65;1.00;;;;;;;15.57;64.63;100774.81;5012789;28;20034;-84
2021/05/09 07:01:23;;;;;;;2.10;1.23;;;;;;;15.65;64.68;100774.78;4994921;28;20261;-85
2021/05/09 07:03:48;;;;;;;3.05;1.27;;;;;;;15.70;63.55;100775.03;4993035;28;20046;-84
2021/05/09 07:06:14;;;;;;;3.45;1.58;;;;;;;15.90;64.31;100771.94;5011942;28;20073;-84
2021/05/09 07:08:39;;;;;;;1.98;1.02;;;;;;;16.03;62.46;100772.13;4979767;28;20041;-84
2021/05/09 07:11:05;;;;;;;5.43;1.33;;;;;;;16.14;62.02;100770.81;5010869;28;20500;-83
2021/05/09 07:13:30;;;;;;;3.75;1.38;;;;;;;16.31;63.23;100768.81;4983328;28;20066;-84
2021/05/09 07:15:58;;;;;;;2.05;1.15;;;;;;;16.47;62.24;100771.28;5008985;28;20069;-85
2021/05/09 07:18:24;;;;;;;1.90;1.23;;;;;;;16.53;62.16;100759.94;5010951;28;20816;-85
2021/05/09 07:20:56;;;;;;;3.50;1.30;;;;;;;16.46;61.08;100771.44;4991562;28;20089;-85
2021/05/09 07:23:22;;;;;;;1.20;1.10;;;;;;;16.44;62.76;100776.13;4988862;28;20769;-84
2021/05/09 07:25:47;;;;;;;2.63;1.23;;;;;;;16.49;61.50;100776.38;5014354;28;20053;-84
2021/05/09 07:28:15;;;;;;;2.35;1.10;;;;;;;16.63;61.21;100772.06;5012942;28;20666;-84
2021/05/09 07:30:42;;;;;;;1.85;1.30;;;;;;;16.70;61.24;100773.78;5011398;28;20046;-84
2021/05/09 07:33:14;;;;;;;2.78;1.40;;;;;;;16.84;60.21;100766.84;4994763;28;20428;-86
2021/05/09 07:35:41;;;;;;;;;;;;;;;16.96;60.06;100764.53;4996986;28;20096;-84
2021/05/09 07:38:09;;;;;;;3.22;1.20;;;;;;;17.06;60.81;100765.03;4997759;28;19921;-85
2021/05/09 07:40:35;;;;;;;3.88;1.30;;;;;;;17.22;62.16;100766.63;4983584;28;20436;-85
2021/05/09 07:43:01;;;;;;;4.47;1.30;;;;;;;17.33;58.82;100773.25;5001596;28;20050;-84
2021/05/09 07:45:26;;;;;;;2.95;1.30;;;;;;;17.39;60.48;100767.19;5012201;28;20061;-84
2021/05/09 07:47:52;;;;;;;5.22;1.48;;;;;;;17.47;59.26;100763.59;5012527;28;20359;-85
2021/05/09 07:50:19;;;;;;;1.95;1.13;;;;;;;17.55;59.02;100759.97;5013380;28;20510;-84
2021/05/09 07:52:46;;;;;;;2.60;1.20;;;;;;;17.76;59.65;100769.72;5011630;28;20108;-85
2021/05/09 07:55:13;;;;;;;1.63;1.40;;;;;;;17.89;58.50;100777.78;5027615;28;20071;-85
2021/05/09 07:57:38;;;;;;;2.55;1.20;;;;;;;18.00;58.89;100761.34;4994993;28;20042;-85
2021/05/09 08:00:14;;;;;;;2.97;1.30;;;;;;;18.03;57.83;100771.56;4994907;28;20416;-85
2021/05/09 08:02:44;;;;;;;2.53;1.25;;;;;;;18.16;57.86;100775.28;5010117;28;20050;-84
2021/05/09 08:05:11;;;;;;;2.25;1.13;;;;;;;18.28;58.30;100776.41;4993345;28;20054;-83
2021/05/09 08:07:56;;;;;;;1.77;1.17;;;;;;;18.37;56.49;100774.41;5011096;28;20062;-85
2021/05/09 08:10:26;;;;;;;3.25;1.30;;;;;;;18.47;57.39;100780.97;4976674;28;20069;-83
2021/05/09 08:12:53;;;;;;;2.70;1.20;;;;;;;18.63;57.14;100776.38;4994027;28;20535;-84
2021/05/09 08:15:21;;;;;;;5.57;1.25;;;;;;;18.67;55.89;100780.25;4977880;28;20046;-85
2021/05/09 08:17:47;;;;;;;2.70;1.10;;;;;;;18.77;56.20;100782.53;5010209;28;20059;-85
2021/05/09 08:20:13;;;;;;;1.98;1.23;;;;;;;18.86;55.29;100770.75;4994027;28;20050;-84
2021/05/09 08:22:39;;;;;;;4.57;1.38;;;;;;;18.97;54.30;100772.81;5011408;28;20042;-85
2021/05/09 08:25:05;;;;;;;4.15;1.17;;;;;;;18.83;53.42;100766.63;5010334;28;20046;-84
2021/05/09 08:27:33;;;;;;;2.40;1.27;;;;;;;18.90;53.94;100768.50;5012476;28;20046;-85
2021/05/09 08:30:00;;;;;;;4.10;1.27;;;;;;;18.98;55.65;100774.44;4997728;28;20042;-85
2021/05/09 08:32:27;;;;;;;2.70;1.20;;;;;;;19.16;54.61;100776.53;5007578;28;20042;-83
2021/05/09 08:34:53;;;;;;;4.38;1.20;;;;;;;19.25;55.06;100770.00;5009994;28;20152;-84
2021/05/09 08:37:19;;;;;;;5.43;1.13;;;;;;;19.35;53.39;100777.56;4993838;28;20049;-86
2021/05/09 08:39:45;;;;;;;3.63;1.20;;;;;;;19.44;53.64;100772.88;5010076;28;20797;-86
2021/05/09 08:42:14;;;;;;;3.42;1.27;;;;;;;19.51;54.25;100771.00;4994011;28;20077;-87
2021/05/09 08:44:40;;;;;;;3.58;1.23;;;;;;;19.75;55.19;100776.78;4977378;28;20485;-84
2021/05/09 08:47:08;;;;;;;2.30;0.98;;;;;;;19.95;54.75;100764.25;4976448;28;20046;-86
2021/05/09 08:49:39;;;;;;;3.00;1.30;;;;;;;20.12;53.56;100751.31;5008974;28;20037;-86
2021/05/09 08:52:06;;;;;;;1.77;0.95;;;;;;;20.06;52.00;100757.50;5002432;28;20065;-86
2021/05/09 08:54:31;;;;;;;3.88;1.30;;;;;;;20.09;52.68;100743.75;5009918;28;20050;-86
2021/05/09 08:56:57;;;;;;;3.92;1.17;;;;;;;20.23;52.96;100755.19;5026535;28;20060;-85
2021/05/09 08:59:22;;;;;;;3.20;1.17;;;;;;;20.35;52.92;100750.81;5009503;28;20045;-85
2021/05/09 09:01:48;;;;;;;4.35;1.75;;;;;;;20.38;50.10;100746.91;5009986;28;20046;-84
2021/05/09 09:04:14;;;;;;;2.85;1.00;;;;;;;20.47;50.19;100737.66;5009959;28;20516;-85
2021/05/09 09:06:44;;;;;;;4.88;1.30;;;;;;;20.56;51.01;100739.03;5009349;28;20049;-86
2021/05/09 09:09:20;;;;;;;2.30;1.25;;;;;;;20.50;50.19;100734.56;5007586;28;20049;-85
2021/05/09 09:12:04;;;;;;;4.10;1.20;;;;;;;20.68;51.01;100722.41;5010330;28;20045;-84
2021/05/09 09:14:29;;;;;;;4.45;1.33;;;;;;;20.57;50.13;100727.38;4990080;28;20046;-87
2021/05/09 09:17:15;;;;;;;4.63;1.20;;;;;;;20.71;51.83;100714.00;4973886;28;20053;-84
2021/05/09 09:20:06;;;;;;;4.07;1.38;;;;;;;20.95;51.03;100712.41;4977008;28;20504;-85
2021/05/09 09:22:50;;;;;;;1.95;1.38;;;;;;;21.17;49.55;100716.34;4973422;28;20047;-86
2021/05/09 09:25:17;;;;;;;3.72;1.30;;;;;;;21.14;48.56;100699.97;4989750;28;20059;-86
2021/05/09 09:27:48;;;;;;;3.15;1.05;;;;;;;21.35;49.13;100712.91;4999603;28;20120;-85
2021/05/09 09:30:15;;;;;;;3.25;1.17;;;;;;;21.39;49.04;100711.44;5008729;28;20050;-85
2021/05/09 09:32:41;;;;;;;5.10;1.20;;;;;;;21.42;47.56;100712.88;4992297;28;20096;-87
2021/05/09 09:35:26;;;;;;;2.22;1.20;;;;;;;21.53;47.89;100706.84;4977118;28;20050;-86
2021/05/09 09:37:52;;;;;;;2.85;1.10;;;;;;;21.60;48.26;100697.94;4991258;28;20050;-87
2021/05/09 09:40:17;;;;;;;4.30;1.38;;;;;;;21.89;49.14;100699.09;4975758;28;20049;-85
2021/05/09 09:42:47;;;;;;;2.70;1.00;;;;;;;22.03;47.61;100700.56;4990817;28;20065;-86
2021/05/09 09:45:20;;;;;;;3.38;1.17;;;;;;;21.87;47.38;100701.97;4976229;28;20061;-85
2021/05/09 09:48:00;;;;;;;2.33;1.25;;;;;;;21.78;48.17;100693.44;4976252;28;20045;-85
2021/05/09 09:50:39;;;;;;;7.63;1.30;;;;;;;21.71;47.06;100679.34;5001434;28;20048;-82
2021/05/09 09:53:39;;;;;;;2.83;1.13;;;;;;;21.89;45.94;100667.84;5009007;23;20140;-79
2021/05/09 09:56:09;;;;;;;1.80;1.17;;;;;;;22.01;46.14;100675.13;5009987;28;20099;-79
2021/05/09 09:58:57;;;;;;;3.47;1.30;;;;;;;22.02;44.89;100664.22;5014545;28;20037;-75
2021/05/09 10:01:30;;;;;;;3.42;1.23;;;;;;;22.09;46.88;100661.44;5031221;28;20025;-77
2021/05/09 10:03:58;;;;;;;2.05;1.17;;;;;;;22.19;45.59;100661.75;5012388;28;20045;-77
2021/05/09 10:06:24;;;;;;;2.80;1.38;;;;;;;22.40;46.34;100668.50;5022093;28;20763;-75
2021/05/09 10:08:51;;;;;;;2.85;1.23;;;;;;;22.44;44.86;100664.31;5009070;28;20077;-78
2021/05/09 10:11:19;;;;;;;4.25;1.23;;;;;;;22.47;44.66;100657.69;5012780;28;20041;-75
2021/05/09 10:13:48;;;;;;;2.67;1.08;;;;;;;22.38;44.21;100659.03;5010512;28;20073;-77
2021/05/09 10:16:18;;;;;;;2.85;1.08;;;;;;;22.53;45.65;100654.94;5009749;28;20041;-79
2021/05/09 10:18:47;;;;;;;4.50;1.45;;;;;;;22.47;43.29;100657.69;5008356;28;20073;-78
2021/05/09 10:21:12;;;;;;;2.15;1.02;;;;;;;22.57;45.36;100649.94;5027360;28;20424;-76
2021/05/09 10:24:10;;;;;;;3.45;0.98;;;;;;;22.87;44.11;100654.44;5009230;28;20044;-76
2021/05/09 10:26:52;;;;;;;4.32;1.30;;;;;;;23.01;42.72;100644.34;5009118;28;20054;-77
2021/05/09 10:29:33;;;;;;;7.10;1.52;;;;;;;23.14;42.83;100641.47;5000469;28;20409;-77
2021/05/09 10:31:59;;;;;;;3.15;1.10;;;;;;;23.18;43.94;100631.09;4972303;28;20080;-76
2021/05/09 10:37:40;;;;;;;2.95;1.10;;;;;;;23.31;43.97;100626.31;5022825;28;20873;-77
2021/05/09 10:40:25;;;;;;;4.85;1.00;;;;;;;23.59;42.89;100622.09;5006500;28;20046;-77
2021/05/09 10:43:08;;;;;;;4.55;1.02;;;;;;;23.67;40.96;100623.59;5003790;28;20502;-74
2021/05/09 10:45:36;;;;;;;1.88;0.98;;;;;;;23.73;40.50;100611.13;5009206;28;20042;-75
2021/05/09 10:50:40;;;;;;;2.13;0.98;;;;;;;23.93;39.26;100610.75;4992043;28;20069;-77
2021/05/09 10:53:06;;;;;;;2.00;0.80;;;;;;;24.00;40.99;100606.09;5008478;28;20137;-79
2021/05/09 10:55:47;;;;;;;3.03;0.93;;;;;;;23.80;39.79;100615.34;4994753;28;20459;-78
2021/05/09 10:58:15;;;;;;;5.60;1.30;;;;;;;23.73;41.18;100617.28;4999397;28;20046;-76
2021/05/09 11:00:57;;;;;;;2.28;1.10;;;;;;;23.78;37.89;100613.91;5004606;28;20155;-77
2021/05/09 11:03:35;;;;;;;5.47;0.98;;;;;;;23.89;41.41;100613.91;4991946;28;20052;-80
2021/05/09 11:06:09;;;;;;;3.33;1.20;;;;;;;24.04;40.01;100620.63;5008930;28;20531;-78
2021/05/09 11:08:53;;;;;;;1.63;0.93;;;;;;;24.13;40.42;100602.28;5006878;28;20599;-77
2021/05/09 11:11:39;;;;;;;1.73;0.80;;;;;;;23.86;38.34;100609.00;5007284;28;20092;-76
2021/05/09 11:14:11;;;;;;;2.97;1.05;;;;;;;24.03;40.39;100606.38;5014486;28;20096;-79
2021/05/09 11:16:36;;;;;;;;;;;;;;;24.26;40.53;100596.63;5010499;28;20754;-81
2021/05/09 11:19:13;;;;;;;1.88;0.82;;;;;;;24.52;40.78;100589.88;5009892;28;19961;-77
2021/05/09 11:21:44;;;;;;;1.90;0.90;;;;;;;24.70;37.77;100586.16;5009641;28;20073;-79
2021/05/09 11:24:21;;;;;;;5.47;1.40;;;;;;;24.82;38.69;100594.91;5010497;28;20044;-80
2021/05/09 11:26:48;;;;;;;3.20;0.98;;;;;;;25.06;38.66;100584.81;5011540;28;20541;-79
2021/05/09 11:29:35;;;;;;;2.33;1.10;;;;;;;25.33;38.95;100599.41;5026171;28;20069;-78
2021/05/09 11:32:08;;;;;;;1.52;0.90;;;;;;;25.22;36.78;100591.22;5006421;28;20054;-78
2021/05/09 11:34:35;;;;;;;1.17;0.95;;;;;;;25.31;38.72;100599.66;5021109;28;20043;-79
2021/05/09 11:37:01;;;;;;;18.45;13.63;;;;;;;25.38;38.16;100594.94;5011008;28;20052;-77
2021/05/09 11:39:39;;;;;;;2.25;1.10;;;;;;;25.23;36.47;100600.91;5008414;28;20050;-76